Time;durP1;ratioP1;P1;durP2;ratioP2;P2;SDS_P1;SDS_P2;PMS_P1;PMS_P2;Temp;Humidity;BMP_temperature;BMP_pressure;BME280_temperature;BME280_humidity;BME280_pressure;Samples;Min_cycle;Max_cycle;Signal;HPM_P1;HPM_P2
2022/10/02 00:02:31;;;;;;;4.93;1.65;;;;;;;11.73;100.00;101392.94;4937105;28;20111;-78
2022/10/02 00:05:06;;;;;;;7.72;1.80;;;;;;;11.72;100.00;101391.47;4937616;28;20084;-79
2022/10/02 00:07:45;;;;;;;8.57;1.75;;;;;;;11.70;100.00;101393.81;4937319;28;20127;-79
2022/10/02 00:10:17;;;;;;;6.90;1.60;;;;;;;11.68;100.00;101409.50;4937882;28;20079;-79
2022/10/02 00:12:46;;;;;;;7.40;1.70;;;;;;;11.65;100.00;101408.44;4952069;28;21002;-79
2022/10/02 00:15:22;;;;;;;9.02;1.70;;;;;;;11.62;100.00;101411.97;4936805;29;20072;-79
2022/10/02 00:17:52;;;;;;;7.80;1.42;;;;;;;11.61;100.00;101415.81;4937128;28;20119;-80
2022/10/02 00:20:26;;;;;;;4.90;1.50;;;;;;;11.59;100.00;101410.19;4937158;28;20588;-79
2022/10/02 00:23:15;;;;;;;8.25;1.83;;;;;;;11.58;100.00;101411.34;4937108;28;20524;-79
2022/10/02 00:25:55;;;;;;;8.32;1.95;;;;;;;11.56;100.00;101421.69;4936695;28;20139;-80
2022/10/02 00:28:30;;;;;;;8.50;2.13;;;;;;;11.56;100.00;101423.63;4936774;28;20505;-80
2022/10/02 00:31:25;;;;;;;10.93;2.08;;;;;;;11.54;100.00;101464.03;4936946;28;20052;-80
2022/10/02 00:34:20;;;;;;;5.88;1.70;;;;;;;11.57;100.00;101457.84;4914904;29;20072;-80
2022/10/02 00:37:00;;;;;;;6.18;1.85;;;;;;;11.62;100.00;101467.97;4915147;29;20045;-80
2022/10/02 00:39:29;;;;;;;11.75;2.28;;;;;;;11.66;100.00;101449.94;4915705;29;20056;-80
2022/10/02 00:42:14;;;;;;;6.63;1.98;;;;;;;11.70;100.00;101444.50;4915197;29;20040;-81
2022/10/02 00:44:52;;;;;;;7.28;1.80;;;;;;;11.73;100.00;101446.28;4914789;29;20582;-80
2022/10/02 00:47:42;;;;;;;7.85;1.92;;;;;;;11.75;100.00;101456.53;4915690;29;20845;-80
2022/10/02 00:50:23;;;;;;;10.63;2.22;;;;;;;11.76;100.00;101458.03;4915637;29;20605;-80
2022/10/02 00:53:27;;;;;;;10.60;2.00;;;;;;;11.74;100.00;101457.72;4915196;29;20502;-80
2022/10/02 00:56:21;;;;;;;5.78;1.73;;;;;;;11.71;100.00;101461.97;4877307;29;20182;-80
2022/10/02 00:59:17;;;;;;;7.00;1.75;;;;;;;11.68;100.00;101462.84;4860956;29;20125;-79
2022/10/02 01:01:57;;;;;;;5.05;1.95;;;;;;;11.65;100.00;101458.34;4877327;29;20148;-80
2022/10/02 01:04:33;;;;;;;10.73;2.20;;;;;;;11.63;100.00;101460.72;4877661;29;20480;-80
2022/10/02 01:07:02;;;;;;;9.25;2.17;;;;;;;11.60;100.00;101458.91;4877287;29;20068;-80
2022/10/02 01:09:29;;;;;;;9.10;2.25;;;;;;;11.57;100.00;101454.44;4877066;29;20045;-79
2022/10/02 01:11:56;;;;;;;10.15;2.10;;;;;;;11.55;100.00;101446.13;4910752;29;20144;-80
2022/10/02 01:14:33;;;;;;;6.20;1.88;;;;;;;11.53;100.00;101451.13;4896466;29;20056;-80
2022/10/02 01:17:00;;;;;;;7.47;1.92;;;;;;;11.50;100.00;101446.66;4914784;29;20053;-79
2022/10/02 01:19:36;;;;;;;5.13;2.13;;;;;;;11.48;100.00;101452.41;4915206;29;20056;-79
2022/10/02 01:22:22;;;;;;;6.57;2.38;;;;;;;11.45;100.00;101449.88;4913677;29;20132;-80
2022/10/02 01:24:54;;;;;;;8.55;1.65;;;;;;;11.44;100.00;101443.78;4915139;29;20063;-80
2022/10/02 01:27:20;;;;;;;5.15;2.40;;;;;;;11.42;100.00;101443.47;4914713;29;20071;-80
2022/10/02 01:29:54;;;;;;;6.40;2.03;;;;;;;11.40;100.00;101445.06;4914919;29;20063;-80
2022/10/02 01:32:24;;;;;;;9.70;1.85;;;;;;;11.40;100.00;101450.41;4923962;28;20918;-79
2022/10/02 01:34:55;;;;;;;7.00;1.83;;;;;;;11.41;100.00;101443.88;4953586;28;20382;-79
2022/10/02 01:37:25;;;;;;;8.38;2.20;;;;;;;11.42;100.00;101446.13;4955232;28;20135;-78
2022/10/02 01:39:51;;;;;;;5.95;1.83;;;;;;;11.44;100.00;101448.38;4954803;28;20095;-78
2022/10/02 01:42:20;;;;;;;12.40;2.83;;;;;;;11.44;100.00;101451.03;4954796;28;20489;-77
2022/10/02 01:44:47;;;;;;;8.73;2.35;;;;;;;11.46;100.00;101462.03;4954668;28;20054;-78
2022/10/02 01:47:45;;;;;;;8.88;2.75;;;;;;;11.46;100.00;101451.34;4955226;28;20050;-79
2022/10/02 01:50:20;;;;;;;15.23;3.13;;;;;;;11.46;100.00;101460.09;4955327;28;20099;-79
2022/10/02 01:52:58;;;;;;;10.10;2.72;;;;;;;11.49;100.00;101458.50;4954751;28;20044;-79
2022/10/02 01:55:49;;;;;;;9.15;3.13;;;;;;;11.50;100.00;101460.75;4954738;28;20087;-79
2022/10/02 01:58:25;;;;;;;10.73;3.00;;;;;;;11.49;100.00;101466.50;4953768;28;20058;-79
2022/10/02 02:01:00;;;;;;;14.13;3.40;;;;;;;11.49;100.00;101464.56;4954975;28;20138;-79
2022/10/02 02:03:42;;;;;;;13.57;4.22;;;;;;;11.48;100.00;101462.34;4954796;28;20135;-79
2022/10/02 02:06:23;;;;;;;11.82;2.60;;;;;;;11.48;100.00;101457.00;4955228;28;20155;-80
2022/10/02 02:09:08;;;;;;;12.07;3.00;;;;;;;11.46;100.00;101457.44;4954647;28;20134;-80
2022/10/02 02:11:39;;;;;;;10.15;3.08;;;;;;;11.46;100.00;101462.03;4954701;28;20123;-79
2022/10/02 02:14:16;;;;;;;16.40;3.40;;;;;;;11.47;100.00;101463.50;4955107;28;20084;-80
2022/10/02 02:16:48;;;;;;;19.52;3.47;;;;;;;11.46;100.00;101465.44;4954812;28;20051;-80
2022/10/02 02:19:26;;;;;;;12.98;3.40;;;;;;;11.49;100.00;101466.50;4954920;28;20043;-80
2022/10/02 02:21:57;;;;;;;9.85;3.50;;;;;;;11.49;100.00;101458.50;4954825;28;20043;-80
2022/10/02 02:24:30;;;;;;;12.03;3.80;;;;;;;11.48;100.00;101463.09;4954192;28;20052;-80
2022/10/02 02:27:00;;;;;;;16.13;4.10;;;;;;;11.47;100.00;101460.84;4955590;28;20741;-80
2022/10/02 02:29:31;;;;;;;27.05;3.30;;;;;;;11.44;100.00;101456.38;4958576;28;20044;-80
2022/10/02 02:32:01;;;;;;;8.73;3.22;;;;;;;11.42;100.00;101456.03;4958089;28;20048;-80
2022/10/02 02:34:36;;;;;;;10.18;3.05;;;;;;;11.40;100.00;101461.06;4957901;28;20047;-80
2022/10/02 02:37:12;;;;;;;10.65;3.25;;;;;;;11.38;100.00;101458.06;4957760;28;20135;-80
2022/10/02 02:39:51;;;;;;;11.55;2.95;;;;;;;11.38;100.00;101469.47;4957293;28;20052;-80
2022/10/02 02:42:22;;;;;;;11.30;3.17;;;;;;;11.34;100.00;101461.59;4958155;28;20065;-80
2022/10/02 02:44:59;;;;;;;12.60;3.42;;;;;;;11.36;100.00;101463.81;4957497;28;20044;-80
2022/10/02 02:47:44;;;;;;;10.55;3.20;;;;;;;11.37;100.00;101468.00;4956395;28;20147;-80
2022/10/02 02:50:10;;;;;;;14.98;3.45;;;;;;;11.41;100.00;101462.56;4957966;28;20148;-80
2022/10/02 02:52:43;;;;;;;17.00;3.35;;;;;;;11.45;100.00;101463.19;4957445;28;20048;-80
2022/10/02 02:55:25;;;;;;;13.90;3.85;;;;;;;11.47;100.00;101468.84;4957578;28;20044;-80
2022/10/02 02:58:04;;;;;;;13.15;3.15;;;;;;;11.50;100.00;101471.41;4957704;28;20118;-80
2022/10/02 03:00:30;;;;;;;9.90;2.70;;;;;;;11.51;100.00;101472.91;4957867;28;20130;-80
2022/10/02 03:02:57;;;;;;;18.13;3.60;;;;;;;11.50;100.00;101468.75;4957769;28;20126;-80
2022/10/02 03:05:24;;;;;;;15.75;3.47;;;;;;;11.50;100.00;101473.31;4957685;28;20572;-80
2022/10/02 03:07:58;;;;;;;16.23;3.05;;;;;;;11.51;100.00;101467.56;4956706;28;20131;-80
2022/10/02 03:10:43;;;;;;;23.98;2.80;;;;;;;11.49;100.00;101467.25;4957768;28;20142;-80
2022/10/02 03:13:32;;;;;;;14.52;3.28;;;;;;;11.48;100.00;101465.75;4957980;28;20163;-80
2022/10/02 03:16:41;;;;;;;14.23;2.78;;;;;;;11.46;100.00;101465.44;4957303;28;20067;-80
2022/10/02 03:19:38;;;;;;;17.35;2.63;;;;;;;11.43;100.00;101452.94;4957414;28;20147;-80
2022/10/02 03:22:10;;;;;;;16.58;3.28;;;;;;;11.39;100.00;101454.22;4957447;28;20054;-80
2022/10/02 03:25:01;;;;;;;12.07;2.83;;;;;;;11.38;100.00;101460.72;4957453;28;20071;-80
2022/10/02 03:27:35;;;;;;;9.18;2.60;;;;;;;11.31;100.00;101464.34;4957535;28;20048;-79
2022/10/02 03:30:11;;;;;;;8.38;2.50;;;;;;;11.28;100.00;101473.94;4957558;28;20126;-80
2022/10/02 03:32:40;;;;;;;10.63;2.40;;;;;;;11.24;100.00;101473.31;4956981;28;20082;-79
2022/10/02 03:35:13;;;;;;;12.95;2.65;;;;;;;11.22;100.00;101480.22;4957122;28;20055;-80
2022/10/02 03:37:48;;;;;;;11.23;2.60;;;;;;;11.20;100.00;101485.25;4954841;28;20135;-80
2022/10/02 03:40:15;;;;;;;9.45;2.78;;;;;;;11.20;100.00;101485.25;4957207;28;20054;-79
2022/10/02 03:42:41;;;;;;;7.13;2.05;;;;;;;11.21;100.00;101479.47;4956809;28;20039;-80
2022/10/02 03:45:08;;;;;;;9.35;2.25;;;;;;;11.23;100.00;101487.06;4957178;28;20050;-79
2022/10/02 03:47:34;;;;;;;12.05;2.25;;;;;;;11.26;100.00;101483.53;4956746;28;20054;-80
2022/10/02 03:50:01;;;;;;;20.02;3.13;;;;;;;11.30;100.00;101484.19;4956826;28;20052;-80
2022/10/02 03:52:31;;;;;;;14.63;2.55;;;;;;;11.29;100.00;101490.69;4956469;28;20058;-80
2022/10/02 03:55:02;;;;;;;12.07;2.67;;;;;;;11.27;100.00;101488.44;4956683;28;20044;-80
2022/10/02 03:57:32;;;;;;;9.77;2.75;;;;;;;11.27;100.00;101496.44;4957063;28;20503;-79
2022/10/02 04:00:08;;;;;;;9.63;2.70;;;;;;;11.26;100.00;101494.94;4956576;28;20051;-80
2022/10/02 04:02:51;;;;;;;13.95;2.63;;;;;;;11.27;100.00;101487.69;4956872;28;20094;-79
2022/10/02 04:05:28;;;;;;;23.45;3.25;;;;;;;11.28;100.00;101497.94;4957031;28;20042;-79
2022/10/02 04:08:01;;;;;;;9.32;2.40;;;;;;;11.26;100.00;101497.63;4956103;28;20534;-80
2022/10/02 04:10:39;;;;;;;14.43;2.45;;;;;;;11.25;100.00;101500.69;4956761;28;20055;-79
2022/10/02 04:13:15;;;;;;;8.35;2.15;;;;;;;11.25;100.00;101501.44;4956903;28;20044;-80
2022/10/02 04:15:56;;;;;;;13.43;2.90;;;;;;;11.26;100.00;101499.53;4956581;28;20050;-79
2022/10/02 04:18:28;;;;;;;17.55;2.88;;;;;;;11.24;100.00;101507.94;4956669;28;20048;-79
2022/10/02 04:21:02;;;;;;;10.18;2.67;;;;;;;11.20;100.00;101496.66;4955645;28;20497;-79
2022/10/02 04:23:41;;;;;;;13.57;2.63;;;;;;;11.16;100.00;101503.28;4956747;28;20502;-79
2022/10/02 04:26:19;;;;;;;11.43;2.30;;;;;;;11.11;100.00;101504.53;4956755;28;20042;-79
2022/10/02 04:28:58;;;;;;;11.98;2.42;;;;;;;11.05;100.00;101506.22;4956332;28;20044;-79
2022/10/02 04:31:26;;;;;;;21.45;3.00;;;;;;;11.01;100.00;101506.34;4955981;28;20122;-79
2022/10/02 04:33:58;;;;;;;13.82;2.80;;;;;;;11.01;100.00;101518.91;4955952;28;20091;-79
2022/10/02 04:36:30;;;;;;;14.15;2.58;;;;;;;11.01;100.00;101514.31;4955927;28;20083;-79
2022/10/02 04:39:01;;;;;;;10.15;2.33;;;;;;;10.99;100.00;101522.00;4955943;28;20047;-79
2022/10/02 04:41:34;;;;;;;6.70;2.50;;;;;;;10.97;100.00;101520.91;4956667;28;20052;-79
2022/10/02 04:44:33;;;;;;;10.05;2.80;;;;;;;10.93;100.00;101518.34;4956132;28;20123;-79
2022/10/02 04:47:10;;;;;;;9.30;2.30;;;;;;;10.89;100.00;101528.34;4952845;28;20060;-79
2022/10/02 04:49:51;;;;;;;12.20;2.45;;;;;;;10.87;100.00;101529.94;4955395;28;20122;-79
2022/10/02 04:52:36;;;;;;;11.52;2.50;;;;;;;10.83;100.00;101526.63;4956258;28;20489;-79
2022/10/02 04:55:30;;;;;;;10.60;2.53;;;;;;;10.80;100.00;101522.13;4956212;28;20055;-79
2022/10/02 04:58:21;;;;;;;6.00;2.30;;;;;;;10.78;100.00;101522.59;4954569;28;20090;-79
2022/10/02 05:00:50;;;;;;;5.93;2.25;;;;;;;10.75;100.00;101523.44;4955853;28;20050;-79
2022/10/02 05:03:42;;;;;;;7.63;2.33;;;;;;;10.76;100.00;101526.84;4954236;28;20043;-79
2022/10/02 05:06:27;;;;;;;15.18;2.53;;;;;;;10.73;100.00;101520.44;4955870;28;20532;-79
2022/10/02 05:09:15;;;;;;;10.65;2.10;;;;;;;10.72;100.00;101529.59;4955463;28;20048;-79
2022/10/02 05:12:07;;;;;;;13.50;2.35;;;;;;;10.75;100.00;101528.75;4955178;28;20052;-79
2022/10/02 05:14:55;;;;;;;11.90;2.72;;;;;;;10.78;100.00;101525.25;4955678;28;20600;-79
2022/10/02 05:17:38;;;;;;;11.05;2.25;;;;;;;10.84;100.00;101531.53;4955356;28;20044;-78
2022/10/02 05:20:34;;;;;;;13.02;2.00;;;;;;;10.89;100.00;101539.00;4955117;28;20489;-78
2022/10/02 05:23:29;;;;;;;12.43;2.20;;;;;;;10.94;100.00;101559.81;4955544;28;20934;-77
2022/10/02 05:26:02;;;;;;;10.40;2.50;;;;;;;11.01;100.00;101564.94;4955188;28;20046;-76
2022/10/02 05:29:06;;;;;;;11.48;2.15;;;;;;;11.11;100.00;101573.06;4954144;28;20175;-77
2022/10/02 05:31:51;;;;;;;15.55;2.70;;;;;;;11.14;100.00;101572.97;4955406;28;20119;-77
2022/10/02 05:34:45;;;;;;;14.52;2.22;;;;;;;11.16;100.00;101573.31;4955117;28;20063;-77
2022/10/02 05:37:30;;;;;;;14.80;2.50;;;;;;;11.18;100.00;101578.97;4955202;28;20070;-77
2022/10/02 05:40:25;;;;;;;15.07;2.50;;;;;;;11.21;100.00;101583.41;4955097;28;20063;-78
2022/10/02 05:43:05;;;;;;;11.02;2.80;;;;;;;11.23;100.00;101581.09;4955108;28;20126;-78
2022/10/02 05:45:37;;;;;;;7.97;2.20;;;;;;;11.24;100.00;101593.25;4955324;28;20544;-78
2022/10/02 05:48:12;;;;;;;13.93;2.20;;;;;;;11.24;100.00;101584.50;4954737;28;20519;-78
2022/10/02 05:50:40;;;;;;;9.02;2.08;;;;;;;11.22;100.00;101576.19;4954965;28;20497;-78
2022/10/02 05:53:21;;;;;;;12.45;2.00;;;;;;;11.21;100.00;101570.09;4953926;28;20599;-78
2022/10/02 05:55:54;;;;;;;8.10;1.92;;;;;;;11.21;100.00;101574.69;4955026;28;20127;-79
2022/10/02 05:58:29;;;;;;;8.15;2.17;;;;;;;11.21;100.00;101580.75;4955455;28;20139;-78
2022/10/02 06:01:02;;;;;;;13.02;2.05;;;;;;;11.19;100.00;101572.47;4954061;28;20051;-78
2022/10/02 06:03:51;;;;;;;6.80;2.10;;;;;;;11.21;100.00;101577.34;4954752;28;20079;-79
2022/10/02 06:06:40;;;;;;;7.88;1.90;;;;;;;11.23;100.00;101567.00;4955031;28;20048;-79
2022/10/02 06:09:18;;;;;;;9.95;2.05;;;;;;;11.24;100.00;101569.25;4954810;28;20058;-79
2022/10/02 06:12:00;;;;;;;8.93;1.98;;;;;;;11.27;100.00;101567.66;4954551;28;20505;-79
2022/10/02 06:14:35;;;;;;;14.73;2.30;;;;;;;11.27;100.00;101573.75;4954768;28;20087;-79
2022/10/02 06:17:11;;;;;;;6.40;2.35;;;;;;;11.29;100.00;101586.66;4954944;28;20043;-78
2022/10/02 06:19:46;;;;;;;10.90;2.22;;;;;;;11.32;100.00;101586.53;4955347;28;20537;-79
2022/10/02 06:22:23;;;;;;;10.23;2.15;;;;;;;11.35;100.00;101584.94;4955475;28;20043;-79
2022/10/02 06:24:57;;;;;;;8.40;2.03;;;;;;;11.36;100.00;101591.78;4955324;28;20481;-79
2022/10/02 06:27:43;;;;;;;7.30;2.45;;;;;;;11.38;100.00;101599.34;4955304;28;20046;-79
2022/10/02 06:30:13;;;;;;;13.50;2.60;;;;;;;11.37;100.00;101601.28;4955033;28;20119;-79
2022/10/02 06:32:57;;;;;;;6.22;2.20;;;;;;;11.41;100.00;101598.50;4954636;28;20051;-79
2022/10/02 06:35:45;;;;;;;7.22;2.05;;;;;;;11.46;100.00;101606.00;4955137;28;20048;-78
2022/10/02 06:38:24;;;;;;;11.63;2.35;;;;;;;11.49;100.00;101613.16;4954826;28;20147;-81
2022/10/02 06:40:55;;;;;;;6.43;2.00;;;;;;;11.55;100.00;101611.44;4955055;28;20051;-76
2022/10/02 06:43:49;;;;;;;8.02;2.50;;;;;;;11.58;100.00;101619.34;4955167;28;20511;-78
2022/10/02 06:47:00;;;;;;;15.32;2.75;;;;;;;11.64;100.00;101627.53;4954598;28;20082;-78
2022/10/02 06:49:35;;;;;;;9.48;2.90;;;;;;;11.68;100.00;101634.28;4954918;28;20052;-78
2022/10/02 06:52:18;;;;;;;7.47;3.30;;;;;;;11.74;100.00;101639.09;4954863;28;20075;-79
2022/10/02 06:55:06;;;;;;;8.90;2.03;;;;;;;11.78;100.00;101637.09;4954820;28;20487;-80
2022/10/02 06:57:51;;;;;;;8.77;2.28;;;;;;;11.81;100.00;101644.25;4954896;28;20476;-81
2022/10/02 07:00:20;;;;;;;6.65;2.38;;;;;;;11.84;100.00;101636.16;4954572;28;20051;-80
2022/10/02 07:03:17;;;;;;;14.65;2.80;;;;;;;11.91;100.00;101641.28;4954493;28;20127;-79
2022/10/02 07:05:52;;;;;;;9.88;3.35;;;;;;;11.97;100.00;101652.16;4954575;28;20135;-80
2022/10/02 07:08:50;;;;;;;12.77;2.53;;;;;;;12.02;100.00;101648.94;4953279;28;20052;-80
2022/10/02 07:11:27;;;;;;;10.23;2.90;;;;;;;12.08;100.00;101657.16;4954775;28;20068;-81
2022/10/02 07:14:15;;;;;;;16.63;3.30;;;;;;;12.13;100.00;101653.97;4958164;28;20059;-79
2022/10/02 07:17:07;;;;;;;19.00;2.85;;;;;;;12.18;100.00;101653.44;4956993;28;20047;-81
2022/10/02 07:20:01;;;;;;;12.52;2.85;;;;;;;12.21;100.00;101661.34;4957381;28;20127;-81
2022/10/02 07:22:48;;;;;;;9.77;2.63;;;;;;;12.24;100.00;101665.81;4957158;28;20059;-80
2022/10/02 07:25:30;;;;;;;9.23;2.35;;;;;;;12.29;100.00;101669.88;4956721;28;20050;-79
2022/10/02 07:28:44;;;;;;;9.82;2.50;;;;;;;12.32;100.00;101677.78;4956921;28;20046;-81
2022/10/02 07:31:44;;;;;;;9.75;2.80;;;;;;;12.39;100.00;101678.75;4947992;28;20151;-82
2022/10/02 07:34:42;;;;;;;13.23;2.70;;;;;;;12.45;100.00;101685.03;4957037;28;20496;-79
2022/10/02 07:37:12;;;;;;;17.17;3.00;;;;;;;12.49;100.00;101680.31;4956489;28;20202;-80
2022/10/02 07:39:52;;;;;;;8.50;2.67;;;;;;;12.55;100.00;101686.63;4956735;28;20051;-79
2022/10/02 07:42:32;;;;;;;10.27;2.97;;;;;;;12.61;100.00;101693.66;4957160;28;20118;-80
2022/10/02 07:45:21;;;;;;;14.98;3.15;;;;;;;12.67;100.00;101699.22;4956144;28;20190;-81
2022/10/02 07:48:01;;;;;;;7.68;2.33;;;;;;;12.76;100.00;101690.53;4956766;28;20051;-80
2022/10/02 07:50:56;;;;;;;13.98;2.65;;;;;;;12.85;100.00;101693.28;4956984;28;20115;-80
2022/10/02 07:53:50;;;;;;;7.80;2.08;;;;;;;12.95;100.00;101692.94;4956501;28;20584;-80
2022/10/02 07:56:21;;;;;;;17.00;3.22;;;;;;;13.05;100.00;101695.69;4956773;28;20051;-80
2022/10/02 07:58:55;;;;;;;10.65;2.90;;;;;;;13.14;100.00;101693.84;4955888;28;20123;-80
2022/10/02 08:01:28;;;;;;;10.85;2.45;;;;;;;13.27;100.00;101701.81;4956795;28;20123;-80
2022/10/02 08:03:59;;;;;;;9.82;2.80;;;;;;;13.45;100.00;101706.56;4956237;28;20088;-81
2022/10/02 08:06:26;;;;;;;11.90;3.17;;;;;;;13.69;100.00;101704.94;4956678;28;20055;-80
2022/10/02 08:09:05;;;;;;;10.38;3.75;;;;;;;13.74;100.00;101704.38;4956267;28;20052;-81
2022/10/02 08:11:55;;;;;;;20.77;7.97;;;;;;;13.76;100.00;101711.97;4956414;28;20048;-80
2022/10/02 08:14:27;;;;;;;20.38;8.23;;;;;;;13.76;100.00;101720.00;4955708;28;20055;-81
2022/10/02 08:16:59;;;;;;;13.35;4.97;;;;;;;13.74;100.00;101725.78;4954781;28;20118;-79
2022/10/02 08:19:38;;;;;;;19.48;3.72;;;;;;;13.77;100.00;101721.47;4956237;28;20656;-80
2022/10/02 08:22:23;;;;;;;12.57;4.07;;;;;;;13.80;100.00;101724.03;4956034;28;20116;-79
2022/10/02 08:24:56;;;;;;;10.30;3.42;;;;;;;13.81;100.00;101732.81;4955302;28;20054;-84
2022/10/02 08:27:48;;;;;;;12.98;3.45;;;;;;;13.87;100.00;101734.50;4955856;28;20044;-86
2022/10/02 08:30:15;;;;;;;14.20;3.58;;;;;;;13.92;100.00;101723.22;4955109;28;20499;-84
2022/10/02 08:32:42;;;;;;;14.43;4.00;;;;;;;13.99;100.00;101739.00;4955932;28;20067;-83
2022/10/02 08:35:14;;;;;;;12.73;3.45;;;;;;;14.05;100.00;101736.50;4955117;28;20240;-82
2022/10/02 08:38:30;;;;;;;10.27;2.67;;;;;;;14.10;99.48;101743.97;4955823;28;20090;-82
2022/10/02 08:41:11;;;;;;;10.27;2.80;;;;;;;14.30;99.26;101751.66;4955854;28;20086;-84
2022/10/02 08:44:02;;;;;;;12.70;3.05;;;;;;;14.54;98.55;101757.25;4955871;28;20218;-85
2022/10/02 08:46:57;;;;;;;15.13;3.25;;;;;;;14.67;98.53;101760.56;4955887;28;20050;-84
2022/10/02 08:50:00;;;;;;;9.38;2.35;;;;;;;14.84;98.31;101755.69;4954495;28;20433;-84
2022/10/02 08:52:40;;;;;;;8.80;2.40;;;;;;;14.94;96.26;101765.25;4955590;28;20048;-83
2022/10/02 08:55:49;;;;;;;5.68;2.10;;;;;;;14.89;96.57;101765.81;4954690;28;20425;-86
2022/10/02 08:59:04;;;;;;;12.20;2.63;;;;;;;14.90;96.25;101778.78;4955303;28;20515;-82
2022/10/02 09:02:01;;;;;;;16.85;4.40;;;;;;;15.02;96.06;101771.81;4875869;29;20140;-84
2022/10/02 09:04:58;;;;;;;12.10;3.08;;;;;;;15.11;95.07;101777.19;4877806;29;20058;-85
2022/10/02 09:08:01;;;;;;;19.73;3.10;;;;;;;15.26;94.41;101775.41;4877130;29;20574;-84
2022/10/02 09:10:52;;;;;;;14.15;2.60;;;;;;;15.31;92.88;101782.09;4876515;29;20113;-85
2022/10/02 09:13:39;;;;;;;12.77;2.58;;;;;;;15.45;92.15;101783.47;4876706;29;20622;-85
2022/10/02 09:16:26;;;;;;;10.13;2.55;;;;;;;15.57;92.20;101775.28;4876517;29;20144;-84
2022/10/02 09:18:58;;;;;;;11.48;2.80;;;;;;;15.43;90.55;101778.53;4876431;29;20612;-83
2022/10/02 09:21:43;;;;;;;11.10;2.47;;;;;;;15.33;90.35;101785.09;4876384;29;20089;-86
2022/10/02 09:24:22;;;;;;;9.73;2.33;;;;;;;15.25;90.80;101789.25;4881232;29;20216;-85
2022/10/02 09:27:26;;;;;;;17.23;3.15;;;;;;;15.19;91.32;101796.44;4883383;29;20068;-84
2022/10/02 09:30:11;;;;;;;15.70;2.45;;;;;;;15.17;89.52;101801.50;4884425;29;20049;-83
2022/10/02 09:32:58;;;;;;;10.65;2.50;;;;;;;15.17;90.32;101802.22;4890250;29;20144;-84
2022/10/02 09:36:00;;;;;;;13.98;2.17;;;;;;;15.16;90.46;101797.31;4894908;29;20174;-84
2022/10/02 09:39:11;;;;;;;11.55;3.17;;;;;;;15.12;90.81;101797.47;4920272;28;20087;-86
2022/10/02 09:42:14;;;;;;;8.02;2.17;;;;;;;15.04;88.74;101801.59;4954513;28;20043;-85
2022/10/02 09:45:08;;;;;;;11.15;2.63;;;;;;;15.06;88.12;101809.22;4954420;28;20119;-85
2022/10/02 09:48:15;;;;;;;10.93;2.65;;;;;;;15.30;87.35;101813.56;4954244;28;20090;-85
2022/10/02 09:51:16;;;;;;;7.40;2.40;;;;;;;15.51;86.34;101813.88;4954905;28;20528;-85
2022/10/02 09:54:00;;;;;;;8.95;2.17;;;;;;;15.66;85.71;101807.47;4952835;28;20054;-85
2022/10/02 09:56:48;;;;;;;7.85;2.35;;;;;;;15.91;85.06;101802.97;4954707;28;20051;-86
2022/10/02 09:59:47;;;;;;;9.75;2.47;;;;;;;15.93;83.36;101808.66;4954247;28;20384;-83
2022/10/02 10:02:29;;;;;;;8.73;2.53;;;;;;;16.04;83.45;101808.91;4953741;28;20066;-86
2022/10/02 10:05:11;;;;;;;13.63;2.50;;;;;;;16.15;82.90;101803.81;4953921;28;20047;-86
2022/10/02 10:08:05;;;;;;;9.23;2.28;;;;;;;16.13;82.40;101810.81;4954756;28;20050;-87
2022/10/02 10:11:06;;;;;;;14.07;2.42;;;;;;;16.04;83.08;101818.91;4955214;28;20078;-86
2022/10/02 10:13:58;;;;;;;9.10;2.90;;;;;;;15.93;82.44;101827.44;4954611;28;20146;-84
2022/10/02 10:16:43;;;;;;;;;;;;;;;15.96;84.01;101832.66;4954798;28;20050;-81
2022/10/02 10:19:12;;;;;;;9.75;1.92;;;;;;;15.95;81.86;101835.78;4954457;28;20388;-82
2022/10/02 10:21:57;;;;;;;11.75;2.58;;;;;;;16.04;80.97;101822.34;4954246;28;20074;-82
2022/10/02 10:24:53;;;;;;;13.27;2.53;;;;;;;16.16;80.95;101828.72;4954385;28;20135;-87
2022/10/02 10:27:41;;;;;;;10.63;3.17;;;;;;;16.32;81.83;101839.88;4954704;28;20052;-85
2022/10/02 10:30:20;;;;;;;15.35;3.22;;;;;;;16.39;81.51;101836.16;4969355;28;20588;-84
2022/10/02 10:33:04;;;;;;;10.85;4.53;;;;;;;16.45;79.28;101844.31;4954343;28;20509;-84
2022/10/02 10:38:31;;;;;;;12.32;4.18;;;;;;;16.55;77.79;101845.78;4954421;28;20139;-84
2022/10/02 10:39:20;;;;;;;3.53;2.05;;;;;;;16.73;77.50;101850.38;4953548;28;20139;-84
2022/10/02 10:42:05;;;;;;;13.43;2.08;;;;;;;16.75;76.97;101851.41;4969549;28;20139;-82
2022/10/02 10:45:02;;;;;;;7.88;2.13;;;;;;;16.66;76.50;101846.81;4954668;28;20054;-84
2022/10/02 10:48:23;;;;;;;10.45;2.65;;;;;;;16.69;75.40;101852.47;4956548;28;20058;-85
2022/10/02 10:51:01;;;;;;;8.00;2.03;;;;;;;16.73;75.29;101855.75;4955359;28;20051;-87
2022/10/02 10:53:54;;;;;;;12.30;2.22;;;;;;;16.78;75.28;101865.88;4955319;28;20516;-89
2022/10/02 10:56:42;;;;;;;6.88;2.33;;;;;;;16.86;73.82;101867.78;4956175;28;20059;-84
2022/10/02 10:59:47;;;;;;;10.35;2.22;;;;;;;16.85;73.12;101868.97;4958171;28;20044;-85
2022/10/02 11:02:34;;;;;;;6.88;1.83;;;;;;;16.64;72.59;101883.41;4958942;28;20126;-83
2022/10/02 11:05:16;;;;;;;10.27;2.20;;;;;;;16.38;72.66;101887.66;4958554;28;20235;-84
2022/10/02 11:07:43;;;;;;;5.07;1.90;;;;;;;16.26;73.91;101894.69;4957828;28;20123;-82
2022/10/02 11:10:21;;;;;;;8.32;1.48;;;;;;;16.15;73.07;101895.13;4940889;28;20192;-83
2022/10/02 11:12:54;;;;;;;11.68;2.10;;;;;;;16.07;73.92;101893.94;4957724;28;20066;-82
2022/10/02 11:15:49;;;;;;;10.35;2.05;;;;;;;16.05;75.16;101884.84;4957895;28;20142;-82
2022/10/02 11:18:51;;;;;;;13.93;2.10;;;;;;;16.10;75.46;101892.31;4955901;28;20194;-83
2022/10/02 11:21:38;;;;;;;6.97;1.85;;;;;;;16.24;76.35;101905.88;4955500;28;20058;-83
2022/10/02 11:24:30;;;;;;;9.30;2.30;;;;;;;16.28;75.96;101906.47;4956013;28;20538;-84
2022/10/02 11:27:23;;;;;;;6.90;1.90;;;;;;;16.39;74.61;101903.31;4957843;28;20071;-83
2022/10/02 11:30:11;;;;;;;7.38;2.15;;;;;;;16.57;73.49;101908.63;4957464;28;20080;-85
2022/10/02 11:33:11;;;;;;;14.85;2.33;;;;;;;16.60;71.82;101909.69;4958004;28;20083;-84
2022/10/02 11:36:15;;;;;;;10.50;2.90;;;;;;;16.64;72.23;101916.41;4957317;28;20051;-83
2022/10/02 11:39:23;;;;;;;6.07;2.05;;;;;;;16.66;71.75;101907.91;4957993;28;20150;-84
2022/10/02 11:42:42;;;;;;;10.52;2.10;;;;;;;16.72;71.12;101914.16;4957847;28;20578;-85
2022/10/02 11:45:32;;;;;;;7.40;1.90;;;;;;;16.75;71.63;101926.69;4946982;28;20070;-86
2022/10/02 11:48:30;;;;;;;8.35;1.83;;;;;;;16.71;72.82;101926.09;4938114;29;20060;-81
2022/10/02 11:51:16;;;;;;;16.38;2.60;;;;;;;16.70;70.48;101915.81;4937819;29;20478;-82
2022/10/02 11:54:18;;;;;;;10.80;2.67;;;;;;;16.72;72.12;101916.09;4937430;29;20486;-87
2022/10/02 11:56:59;;;;;;;12.75;2.08;;;;;;;16.75;70.94;101918.63;4934883;28;20056;-82
2022/10/02 12:00:04;;;;;;;10.77;2.88;;;;;;;16.76;70.68;101917.44;4934721;29;20127;-82
2022/10/02 12:02:41;;;;;;;12.50;2.17;;;;;;;16.64;69.72;101915.66;4934372;29;20147;-82
2022/10/02 12:05:32;;;;;;;8.55;2.15;;;;;;;16.54;70.13;101924.91;4934875;28;20048;-83
2022/10/02 12:08:36;;;;;;;8.35;1.85;;;;;;;16.59;70.97;101929.69;4934844;29;20064;-83
2022/10/02 12:11:32;;;;;;;9.25;2.60;;;;;;;16.73;69.86;101923.72;4935395;29;20524;-83
2022/10/02 12:14:10;;;;;;;11.13;4.03;;;;;;;16.83;68.09;101924.41;4934949;29;20143;-82
2022/10/02 12:16:59;;;;;;;19.63;6.90;;;;;;;16.90;69.72;101929.47;4935792;29;20123;-84
2022/10/02 12:19:38;;;;;;;13.27;3.17;;;;;;;17.03;68.40;101927.31;4935628;28;20060;-81
2022/10/02 12:28:30;;;;;;;6.38;2.10;;;;;;;16.87;65.43;101933.81;4956461;28;20441;-83
2022/10/02 12:31:24;;;;;;;4.68;1.60;;;;;;;16.71;65.25;101938.81;4956019;28;20047;-82
2022/10/02 12:33:53;;;;;;;9.00;1.88;;;;;;;16.56;66.06;101936.72;4955770;28;20111;-83